Time;durP1;ratioP1;P1;durP2;ratioP2;P2;SDS_P1;SDS_P2;PMS_P1;PMS_P2;Temp;Humidity;BMP_temperature;BMP_pressure;BME280_temperature;BME280_humidity;BME280_pressure;Samples;Min_cycle;Max_cycle;Signal;HPM_P1;HPM_P2
2021/11/26 00:00:11;;;;;;;13.98;10.10;;;;;;;7.19;58.71;100323.30;1705990;84;21043;-69
2021/11/26 00:02:39;;;;;;;17.25;10.15;;;;;;;7.20;58.65;100308.96;1709528;83;21189;-69
2021/11/26 00:05:08;;;;;;;12.98;9.78;;;;;;;7.21;58.63;100299.97;1707773;82;21024;-69
2021/11/26 00:07:35;;;;;;;13.20;9.03;;;;;;;7.21;58.64;100297.31;1706312;83;21427;-69
2021/11/26 00:10:03;;;;;;;13.98;9.90;;;;;;;7.23;58.67;100293.88;1722416;82;21487;-69
2021/11/26 00:12:30;;;;;;;13.30;9.53;;;;;;;7.24;58.69;100282.75;1735561;82;21020;-69
2021/11/26 00:17:26;;;;;;;12.10;9.30;;;;;;;7.23;58.70;100283.24;1735390;82;21099;-69
2021/11/26 00:19:53;;;;;;;13.10;10.10;;;;;;;7.25;58.73;100272.39;1734498;82;21028;-69
2021/11/26 00:22:20;;;;;;;13.25;10.08;;;;;;;7.26;58.65;100272.67;1734298;82;21686;-69
2021/11/26 00:24:49;;;;;;;14.63;10.05;;;;;;;7.27;58.67;100285.72;1735255;82;20945;-69
2021/11/26 00:27:15;;;;;;;14.98;10.32;;;;;;;7.27;58.67;100272.94;1734644;82;21136;-69
2021/11/26 00:29:42;;;;;;;12.10;9.03;;;;;;;7.29;58.67;100274.31;1734629;82;21052;-69
2021/11/26 00:32:09;;;;;;;14.87;10.30;;;;;;;7.32;58.67;100270.91;1718317;82;20942;-69
2021/11/26 00:34:36;;;;;;;14.07;10.25;;;;;;;7.33;58.68;100267.99;1735383;82;21020;-70
2021/11/26 00:37:04;;;;;;;12.75;9.95;;;;;;;7.34;58.69;100266.13;1734471;82;21479;-70
2021/11/26 00:39:30;;;;;;;13.13;9.73;;;;;;;7.31;58.68;100269.30;1735424;82;21828;-70
2021/11/26 00:41:59;;;;;;;14.68;9.95;;;;;;;7.26;58.68;100273.47;1735138;82;21563;-70
2021/11/26 00:44:26;;;;;;;14.23;10.40;;;;;;;7.22;58.75;100265.70;1735004;82;21028;-69
2021/11/26 00:46:53;;;;;;;13.13;10.10;;;;;;;7.22;58.81;100262.25;1707640;82;21005;-70
2021/11/26 00:49:20;;;;;;;13.00;9.63;;;;;;;7.20;58.81;100259.02;1706109;83;21432;-70
2021/11/26 00:51:46;;;;;;;14.03;10.13;;;;;;;7.17;58.82;100256.84;1706097;83;21159;-70
2021/11/26 00:54:14;;;;;;;15.48;10.85;;;;;;;7.13;58.85;100245.10;1732679;82;20929;-69
2021/11/26 00:56:40;;;;;;;15.10;10.70;;;;;;;7.09;58.88;100247.44;1703611;82;21459;-69
2021/11/26 00:59:07;;;;;;;15.80;10.18;;;;;;;7.05;58.96;100243.66;1691269;84;21044;-69
2021/11/26 01:01:35;;;;;;;14.65;10.30;;;;;;;7.04;58.93;100237.55;1691088;84;21047;-69
2021/11/26 01:04:02;;;;;;;15.08;10.32;;;;;;;7.02;58.97;100244.14;1691090;84;21101;-69
2021/11/26 01:06:31;;;;;;;14.85;10.10;;;;;;;7.00;58.94;100227.63;1691005;84;21020;-69
2021/11/26 01:09:00;;;;;;;14.75;10.75;;;;;;;6.97;58.99;100218.81;1691295;84;21133;-69
2021/11/26 01:11:26;;;;;;;14.58;9.68;;;;;;;6.94;59.02;100212.16;1691297;84;21027;-69
2021/11/26 01:13:53;;;;;;;13.43;8.98;;;;;;;6.94;58.97;100211.33;1691168;84;21038;-69
2021/11/26 01:16:20;;;;;;;13.62;10.28;;;;;;;6.90;58.98;100190.30;1691125;84;21530;-69
2021/11/26 01:18:48;;;;;;;14.38;10.35;;;;;;;6.85;58.99;100191.56;1691091;84;37641;-69
2021/11/26 01:21:14;;;;;;;14.85;9.63;;;;;;;6.80;58.99;100183.77;1691354;84;21099;-69
2021/11/26 01:23:41;;;;;;;15.70;10.63;;;;;;;6.79;58.94;100202.09;1694609;82;21068;-70
2021/11/26 01:26:08;;;;;;;13.68;9.98;;;;;;;6.75;58.98;100201.48;1705966;84;20984;-69
2021/11/26 01:28:35;;;;;;;13.18;9.68;;;;;;;6.73;59.01;100201.72;1705852;83;21146;-69
2021/11/26 01:31:03;;;;;;;13.50;9.60;;;;;;;6.75;58.94;100208.92;1720322;82;21000;-69
2021/11/26 01:33:30;;;;;;;13.95;10.30;;;;;;;6.70;58.90;100208.83;1735557;82;21582;-69
2021/11/26 01:35:57;;;;;;;14.95;10.55;;;;;;;6.68;58.92;100210.94;1735421;82;20992;-69
2021/11/26 01:38:24;;;;;;;13.03;10.20;;;;;;;6.66;58.84;100206.91;1735390;82;20988;-69
2021/11/26 01:40:52;;;;;;;13.25;9.93;;;;;;;6.64;58.87;100195.19;1735316;82;22252;-69
2021/11/26 01:43:20;;;;;;;14.23;9.78;;;;;;;6.60;58.88;100197.23;1735269;82;20973;-69
2021/11/26 01:45:54;;;;;;;13.25;9.83;;;;;;;6.58;58.85;100198.29;1735513;82;21052;-69
2021/11/26 01:48:22;;;;;;;13.32;9.50;;;;;;;6.55;58.87;100192.13;1735315;82;21468;-69
2021/11/26 01:50:50;;;;;;;15.03;10.45;;;;;;;6.51;58.87;100185.67;1735561;82;20993;-70
2021/11/26 01:53:18;;;;;;;14.25;10.50;;;;;;;6.47;58.85;100189.05;1731061;82;21104;-69
2021/11/26 01:55:44;;;;;;;15.08;10.48;;;;;;;6.41;58.88;100192.66;1710278;82;21059;-69
2021/11/26 01:58:11;;;;;;;14.70;10.60;;;;;;;6.36;58.87;100190.73;1690971;84;21494;-69
2021/11/26 02:00:41;;;;;;;15.05;10.53;;;;;;;6.34;58.94;100198.91;1691070;84;21693;-69
2021/11/26 02:03:07;;;;;;;13.13;9.40;;;;;;;6.34;58.96;100191.47;1701624;82;21043;-69
2021/11/26 02:05:35;;;;;;;15.78;10.30;;;;;;;6.33;58.84;100188.55;1705961;83;21150;-69
2021/11/26 02:08:01;;;;;;;14.83;10.70;;;;;;;6.25;58.81;100187.59;1707223;82;21499;-69
2021/11/26 02:10:28;;;;;;;15.18;10.63;;;;;;;6.16;58.88;100187.18;1706092;83;20977;-69
2021/11/26 02:12:55;;;;;;;15.35;11.18;;;;;;;6.08;58.91;100179.59;1705965;83;21056;-69
2021/11/26 02:15:25;;;;;;;16.15;10.68;;;;;;;5.97;58.98;100188.40;1706315;83;21076;-69
2021/11/26 02:17:55;;;;;;;17.35;10.63;;;;;;;5.84;59.12;100171.69;1705781;83;21526;-69
2021/11/26 02:20:25;;;;;;;16.27;11.05;;;;;;;5.73;59.26;100169.08;1706317;83;21032;-69
2021/11/26 02:22:54;;;;;;;15.45;10.05;;;;;;;5.61;59.45;100161.14;1718798;82;21087;-69
2021/11/26 02:25:22;;;;;;;15.13;10.25;;;;;;;5.53;59.63;100161.52;1735552;82;21044;-69
2021/11/26 02:27:52;;;;;;;17.27;11.22;;;;;;;5.39;59.89;100159.61;1735408;82;20981;-70
2021/11/26 02:30:19;;;;;;;14.75;11.33;;;;;;;5.32;60.09;100157.61;1735315;82;21132;-69
2021/11/26 02:32:55;;;;;;;15.23;10.98;;;;;;;5.24;60.20;100158.78;1735248;82;21016;-69
2021/11/26 02:35:22;;;;;;;17.10;11.12;;;;;;;5.16;60.35;100151.97;1735745;82;21613;-68
2021/11/26 02:37:49;;;;;;;16.23;11.38;;;;;;;5.06;60.57;100156.23;1735396;82;21075;-70
2021/11/26 02:40:20;;;;;;;15.23;11.05;;;;;;;5.03;60.70;100160.66;1735584;82;20945;-69
2021/11/26 02:42:48;;;;;;;15.20;11.20;;;;;;;4.96;60.89;100159.98;1735339;82;21206;-69
2021/11/26 02:45:15;;;;;;;15.55;11.38;;;;;;;4.92;61.08;100149.05;1735351;82;21063;-69
2021/11/26 02:47:42;;;;;;;17.48;11.57;;;;;;;4.86;61.32;100158.70;1735368;82;21135;-69
2021/11/26 02:50:10;;;;;;;17.00;11.05;;;;;;;4.84;61.51;100156.02;1735472;82;20953;-69
2021/11/26 02:52:38;;;;;;;16.00;11.85;;;;;;;4.82;61.68;100159.39;1735492;82;20988;-69
2021/11/26 02:55:07;;;;;;;16.55;11.43;;;;;;;4.80;61.78;100159.61;1735533;82;21130;-69
2021/11/26 02:57:34;;;;;;;17.40;11.75;;;;;;;4.77;61.91;100163.23;1735282;82;21035;-70
2021/11/26 03:00:03;;;;;;;15.32;11.40;;;;;;;4.74;62.04;100157.91;1735578;82;21033;-69
2021/11/26 03:02:30;;;;;;;16.35;11.22;;;;;;;4.72;62.16;100158.63;1735359;82;20985;-69
2021/11/26 03:04:57;;;;;;;20.08;12.78;;;;;;;4.72;62.31;100156.52;1735514;82;21047;-70
2021/11/26 03:07:25;;;;;;;18.98;11.63;;;;;;;4.71;62.45;100162.32;1734282;82;21207;-71
2021/11/26 03:09:52;;;;;;;16.97;11.88;;;;;;;4.74;62.62;100161.88;1735596;82;21056;-69
2021/11/26 03:12:19;;;;;;;16.48;10.82;;;;;;;4.76;62.73;100150.52;1735547;82;21027;-69
2021/11/26 03:14:45;;;;;;;17.82;11.18;;;;;;;4.82;62.85;100160.20;1735507;82;20989;-69
2021/11/26 03:17:12;;;;;;;17.62;12.28;;;;;;;4.87;62.92;100165.63;1735258;82;21067;-69
2021/11/26 03:19:39;;;;;;;17.05;11.57;;;;;;;4.93;62.96;100166.01;1735790;82;21121;-69
2021/11/26 03:22:06;;;;;;;16.75;11.20;;;;;;;4.98;62.95;100164.02;1735309;82;21055;-69
2021/11/26 03:24:33;;;;;;;16.80;11.55;;;;;;;5.00;62.90;100168.57;1735570;82;21487;-70
2021/11/26 03:27:01;;;;;;;15.98;11.93;;;;;;;5.03;62.81;100163.31;1735562;82;21009;-70
2021/11/26 03:29:28;;;;;;;15.28;10.82;;;;;;;5.04;62.75;100165.75;1735519;82;21107;-69
2021/11/26 03:31:54;;;;;;;16.82;11.05;;;;;;;5.03;62.77;100154.85;1735514;82;21778;-69
2021/11/26 03:34:21;;;;;;;16.10;11.45;;;;;;;5.06;62.74;100157.56;1735202;82;20992;-69
2021/11/26 03:36:48;;;;;;;16.40;11.80;;;;;;;5.04;62.73;100155.16;1735505;82;21447;-69
2021/11/26 03:39:14;;;;;;;14.73;10.85;;;;;;;5.03;62.72;100154.05;1735563;82;20989;-69
2021/11/26 03:41:41;;;;;;;17.37;11.68;;;;;;;5.03;62.70;100161.99;1735545;82;21158;-70
2021/11/26 03:44:08;;;;;;;17.17;12.40;;;;;;;5.02;62.67;100153.77;1735428;82;21191;-69
2021/11/26 03:46:34;;;;;;;17.37;11.68;;;;;;;4.99;62.65;100148.41;1735278;82;21178;-69
2021/11/26 03:49:01;;;;;;;16.90;11.25;;;;;;;4.95;62.68;100149.91;1735705;82;21007;-68
2021/11/26 03:51:28;;;;;;;16.93;11.38;;;;;;;4.89;62.65;100141.56;1734876;82;21019;-69
2021/11/26 03:53:56;;;;;;;18.05;11.75;;;;;;;4.82;62.67;100145.64;1714158;82;21606;-69
2021/11/26 03:56:22;;;;;;;18.42;12.05;;;;;;;4.73;62.75;100137.75;1706153;84;21847;-69
2021/11/26 03:58:50;;;;;;;17.62;12.43;;;;;;;4.68;62.83;100136.32;1705794;84;21027;-68
2021/11/26 04:01:16;;;;;;;16.55;11.70;;;;;;;4.64;62.95;100139.11;1706306;84;21017;-69
2021/11/26 04:03:43;;;;;;;15.58;11.05;;;;;;;4.56;63.12;100132.84;1705957;84;21009;-69
2021/11/26 04:06:10;;;;;;;15.90;11.78;;;;;;;4.51;63.27;100134.86;1706162;83;21127;-69
2021/11/26 04:08:37;;;;;;;15.48;11.33;;;;;;;4.48;63.48;100122.61;1705942;84;21124;-69
2021/11/26 04:11:05;;;;;;;18.27;11.53;;;;;;;4.44;63.69;100122.23;1705804;84;21056;-69
2021/11/26 04:13:33;;;;;;;15.08;10.80;;;;;;;4.41;63.87;100124.84;1705985;84;21004;-69
2021/11/26 04:16:04;;;;;;;15.15;10.53;;;;;;;4.42;64.02;100129.08;1706189;84;21067;-69
2021/11/26 04:18:33;;;;;;;16.80;11.20;;;;;;;4.40;64.17;100128.49;1705903;83;21036;-69
2021/11/26 04:21:02;;;;;;;17.42;11.20;;;;;;;4.38;64.37;100131.89;1717709;82;21169;-69
2021/11/26 04:23:30;;;;;;;18.48;11.80;;;;;;;4.38;64.47;100135.06;1733862;82;21005;-69
2021/11/26 04:25:57;;;;;;;16.93;11.90;;;;;;;4.39;64.55;100132.17;1735716;82;20965;-69
2021/11/26 04:28:24;;;;;;;15.75;11.20;;;;;;;4.40;64.57;100125.84;1707886;82;21103;-69
2021/11/26 04:30:52;;;;;;;15.93;11.73;;;;;;;4.41;64.58;100116.10;1706355;83;20988;-69
2021/11/26 04:33:19;;;;;;;15.13;11.15;;;;;;;4.41;64.63;100120.87;1706143;83;21638;-69
2021/11/26 04:35:49;;;;;;;15.60;11.33;;;;;;;4.43;64.71;100122.75;1706151;83;21116;-69
2021/11/26 04:38:16;;;;;;;16.87;11.57;;;;;;;4.43;64.74;100121.43;1706599;83;20989;-68
2021/11/26 04:40:43;;;;;;;14.33;11.15;;;;;;;4.40;64.81;100116.59;1706343;83;21746;-69
2021/11/26 04:43:11;;;;;;;15.65;10.82;;;;;;;4.41;64.90;100115.58;1706657;83;21106;-70
2021/11/26 04:45:38;;;;;;;16.87;11.40;;;;;;;4.41;65.00;100122.19;1706433;83;21084;-70
2021/11/26 04:48:05;;;;;;;15.23;10.75;;;;;;;4.41;65.04;100124.03;1706175;83;21502;-68
2021/11/26 04:50:32;;;;;;;17.57;11.53;;;;;;;4.44;65.04;100134.12;1706302;83;21056;-68
2021/11/26 04:53:00;;;;;;;17.62;11.78;;;;;;;4.42;65.11;100131.73;1706203;83;21496;-70
2021/11/26 04:55:27;;;;;;;16.45;11.73;;;;;;;4.42;65.22;100136.22;1706429;82;20945;-69
2021/11/26 04:57:54;;;;;;;17.15;11.85;;;;;;;4.41;65.33;100132.77;1706140;84;21000;-69
2021/11/26 05:00:22;;;;;;;16.52;11.75;;;;;;;4.43;65.40;100124.08;1706206;84;21064;-69
2021/11/26 05:02:51;;;;;;;15.83;10.88;;;;;;;4.45;65.45;100122.55;1707120;82;21471;-70
2021/11/26 05:05:19;;;;;;;14.05;10.13;;;;;;;4.45;65.48;100119.38;1708415;83;20954;-69
2021/11/26 05:07:46;;;;;;;16.25;11.83;;;;;;;4.48;65.55;100113.36;1714545;77;21000;-68
2021/11/26 05:10:14;;;;;;;14.65;11.10;;;;;;;4.46;65.62;100105.63;1710353;82;21531;-71
2021/11/26 05:12:52;;;;;;;14.98;10.90;;;;;;;4.47;65.70;100111.20;1709767;82;20898;-69
2021/11/26 05:15:16;;;;;;;15.20;10.72;;;;;;;4.48;65.72;100110.19;1738759;77;20910;-69
2021/11/26 05:17:44;;;;;;;14.68;10.93;;;;;;;4.48;65.81;100104.09;1739139;77;21097;-69
2021/11/26 05:20:11;;;;;;;12.78;9.73;;;;;;;4.49;65.84;100105.70;1739241;80;20945;-69
2021/11/26 05:22:38;;;;;;;14.90;10.40;;;;;;;4.50;65.91;100106.78;1739121;82;21310;-69
2021/11/26 05:25:06;;;;;;;15.32;11.12;;;;;;;4.55;65.91;100104.80;1736739;82;21009;-70
2021/11/26 05:27:34;;;;;;;13.43;10.35;;;;;;;4.59;65.93;100109.91;1709716;82;21076;-69
2021/11/26 05:30:01;;;;;;;13.18;9.98;;;;;;;4.61;65.97;100116.59;1709353;84;21008;-69
2021/11/26 05:32:27;;;;;;;15.83;11.00;;;;;;;4.64;65.97;100123.23;1729841;82;21049;-69
2021/11/26 05:34:54;;;;;;;17.00;11.03;;;;;;;4.69;66.01;100118.88;1739173;77;21329;-69
2021/11/26 05:37:21;;;;;;;15.05;10.75;;;;;;;4.74;65.99;100123.50;1737641;82;21058;-69
2021/11/26 05:39:48;;;;;;;15.53;11.08;;;;;;;4.77;65.91;100122.22;1735435;82;20992;-70
2021/11/26 05:42:15;;;;;;;16.67;10.82;;;;;;;4.80;65.85;100119.92;1735610;82;21115;-69
2021/11/26 05:44:42;;;;;;;15.58;10.75;;;;;;;4.85;65.79;100114.76;1735820;82;21028;-70
2021/11/26 05:47:09;;;;;;;14.70;10.58;;;;;;;4.87;65.71;100102.11;1735782;82;21072;-69
2021/11/26 05:49:35;;;;;;;15.20;10.10;;;;;;;4.89;65.65;100099.22;1737507;82;21016;-69
2021/11/26 05:52:06;;;;;;;14.07;10.58;;;;;;;4.90;65.58;100102.15;1738110;82;20928;-69
2021/11/26 05:54:33;;;;;;;15.23;11.05;;;;;;;4.92;65.50;100108.83;1737918;82;20969;-68
2021/11/26 05:56:59;;;;;;;14.90;10.32;;;;;;;4.91;65.44;100107.23;1708824;82;20996;-69
2021/11/26 05:59:26;;;;;;;14.63;10.38;;;;;;;4.91;65.44;100109.88;1706175;83;21071;-70
2021/11/26 06:01:53;;;;;;;13.18;9.80;;;;;;;4.91;65.40;100103.25;1706288;84;21019;-70
2021/11/26 06:04:20;;;;;;;14.50;10.28;;;;;;;4.93;65.40;100098.52;1706154;84;21510;-70
2021/11/26 06:06:47;;;;;;;14.63;10.35;;;;;;;4.93;65.42;100093.75;1706189;84;20949;-70
2021/11/26 06:09:15;;;;;;;13.68;10.38;;;;;;;4.96;65.44;100103.08;1705978;84;21036;-70
2021/11/26 06:11:44;;;;;;;13.72;9.90;;;;;;;4.99;65.42;100094.67;1705982;84;20953;-69
2021/11/26 06:14:11;;;;;;;16.27;10.10;;;;;;;5.02;65.44;100096.34;1706137;84;21016;-68
2021/11/26 06:16:38;;;;;;;15.38;10.68;;;;;;;5.05;65.42;100095.08;1706134;84;21024;-69
2021/11/26 06:19:05;;;;;;;14.33;10.18;;;;;;;5.12;65.34;100099.20;1706107;82;21067;-69
2021/11/26 06:21:32;;;;;;;14.65;9.75;;;;;;;5.17;65.26;100101.17;1719781;82;21071;-69
2021/11/26 06:24:00;;;;;;;12.50;8.80;;;;;;;5.25;65.17;100094.19;1711382;82;21868;-68
2021/11/26 06:26:27;;;;;;;13.50;9.93;;;;;;;5.28;65.11;100096.89;1735796;82;21032;-68
2021/11/26 06:28:54;;;;;;;14.35;10.08;;;;;;;5.30;65.04;100102.25;1735085;82;21012;-69
2021/11/26 06:31:21;;;;;;;12.53;9.80;;;;;;;5.35;64.97;100100.21;1735197;82;20977;-69
2021/11/26 06:33:47;;;;;;;13.32;10.13;;;;;;;5.40;64.93;100107.75;1735503;82;21044;-69
2021/11/26 06:36:14;;;;;;;13.98;9.38;;;;;;;5.48;64.85;100111.87;1714760;82;22090;-68
2021/11/26 06:38:41;;;;;;;13.75;10.13;;;;;;;5.56;64.62;100115.98;1735310;82;20977;-68
2021/11/26 06:41:08;;;;;;;11.97;9.28;;;;;;;5.58;64.53;100117.38;1735583;82;21054;-69
2021/11/26 06:43:35;;;;;;;12.47;9.95;;;;;;;5.64;64.45;100115.64;1734547;82;21028;-70
2021/11/26 06:46:02;;;;;;;13.10;9.20;;;;;;;5.68;64.28;100116.77;1735455;82;21060;-70
2021/11/26 06:48:29;;;;;;;12.33;9.33;;;;;;;5.72;64.17;100109.95;1734535;82;21173;-70
2021/11/26 06:50:56;;;;;;;13.80;9.48;;;;;;;5.78;64.08;100112.19;1735537;82;21000;-70
2021/11/26 06:53:23;;;;;;;13.43;9.58;;;;;;;5.82;63.96;100113.31;1732978;82;21481;-70
2021/11/26 06:55:50;;;;;;;12.60;9.80;;;;;;;5.87;63.85;100114.23;1706244;84;21091;-70
2021/11/26 06:58:16;;;;;;;11.73;8.40;;;;;;;5.94;63.75;100119.95;1705971;84;21056;-69
2021/11/26 07:00:43;;;;;;;11.68;8.45;;;;;;;6.00;63.64;100114.50;1706174;84;21204;-69
2021/11/26 07:03:10;;;;;;;11.97;8.28;;;;;;;6.05;63.40;100113.77;1705787;84;20953;-69
2021/11/26 07:05:37;;;;;;;10.80;8.65;;;;;;;6.08;63.32;100116.75;1705976;84;21016;-69
2021/11/26 07:08:05;;;;;;;11.60;9.03;;;;;;;6.14;63.17;100116.33;1714758;82;21089;-69
2021/11/26 07:10:33;;;;;;;12.33;9.33;;;;;;;6.21;63.03;100108.23;1734830;82;20976;-68
2021/11/26 07:13:00;;;;;;;10.58;8.78;;;;;;;6.27;62.93;100100.64;1735513;82;21567;-69
2021/11/26 07:15:27;;;;;;;12.40;9.25;;;;;;;6.37;62.74;100092.05;1734002;82;21084;-70
2021/11/26 07:17:54;;;;;;;10.45;7.83;;;;;;;6.40;62.51;100093.70;1735398;82;21016;-70
2021/11/26 07:20:21;;;;;;;11.57;8.30;;;;;;;6.45;62.47;100093.80;1735423;82;21460;-70
2021/11/26 07:22:48;;;;;;;11.80;8.05;;;;;;;6.51;62.34;100088.83;1735419;82;21602;-69
2021/11/26 07:25:16;;;;;;;11.20;8.63;;;;;;;6.55;62.17;100091.83;1735295;82;21980;-69
2021/11/26 07:27:43;;;;;;;9.68;7.58;;;;;;;6.62;62.10;100089.02;1735497;82;21028;-70
2021/11/26 07:30:11;;;;;;;11.73;7.92;;;;;;;6.69;61.96;100083.02;1735658;82;21448;-69
2021/11/26 07:32:39;;;;;;;10.78;7.85;;;;;;;6.77;61.80;100096.66;1735431;82;21131;-69
2021/11/26 07:35:08;;;;;;;10.65;8.35;;;;;;;6.81;61.42;100094.32;1735798;82;21507;-70
2021/11/26 07:37:37;;;;;;;10.23;7.72;;;;;;;6.85;61.31;100102.10;1735571;82;21197;-69
2021/11/26 07:40:07;;;;;;;10.80;8.23;;;;;;;6.90;61.28;100094.72;1735666;82;21584;-69
2021/11/26 07:42:35;;;;;;;10.65;8.15;;;;;;;6.99;61.03;100095.92;1735753;82;20989;-69
2021/11/26 07:45:04;;;;;;;10.78;7.95;;;;;;;7.04;60.89;100101.29;1735527;82;21020;-69
2021/11/26 07:47:31;;;;;;;11.90;7.72;;;;;;;7.13;60.77;100099.03;1735938;82;21508;-70
2021/11/26 07:49:59;;;;;;;9.50;7.35;;;;;;;7.22;60.63;100101.02;1735637;82;21130;-69
2021/11/26 07:52:26;;;;;;;10.00;7.55;;;;;;;7.30;60.32;100095.80;1735564;82;21024;-70
2021/11/26 07:54:53;;;;;;;10.13;7.70;;;;;;;7.36;60.22;100088.17;1706300;82;21725;-70
2021/11/26 07:57:20;;;;;;;11.50;8.08;;;;;;;7.43;59.93;100086.12;1706373;84;21582;-68
2021/11/26 07:59:47;;;;;;;9.95;7.45;;;;;;;7.48;59.67;100076.10;1706270;84;20977;-69
2021/11/26 08:02:14;;;;;;;10.90;7.08;;;;;;;7.52;59.51;100071.36;1706474;84;21262;-70
2021/11/26 08:04:42;;;;;;;10.05;8.13;;;;;;;7.60;59.44;100076.78;1706206;84;20964;-70
2021/11/26 08:07:09;;;;;;;9.35;7.20;;;;;;;7.69;59.33;100077.92;1706234;82;21166;-71
2021/11/26 08:09:36;;;;;;;9.48;7.47;;;;;;;7.81;58.97;100082.31;1735460;82;20981;-69
2021/11/26 08:12:05;;;;;;;9.65;7.03;;;;;;;7.88;58.74;100084.24;1735905;82;21154;-69
2021/11/26 08:14:32;;;;;;;12.18;7.67;;;;;;;7.98;58.65;100083.81;1735429;82;21171;-70
2021/11/26 08:16:59;;;;;;;9.05;6.95;;;;;;;8.08;58.24;100102.26;1735870;82;21099;-69
2021/11/26 08:19:26;;;;;;;9.53;7.05;;;;;;;8.14;57.99;100111.90;1735642;82;21040;-72
2021/11/26 08:21:54;;;;;;;9.10;7.10;;;;;;;8.21;57.75;100109.83;1714787;82;21067;-70
2021/11/26 08:24:22;;;;;;;10.15;7.70;;;;;;;8.26;57.41;100108.56;1715771;82;21071;-69
2021/11/26 08:26:50;;;;;;;8.43;6.20;;;;;;;8.27;57.39;100104.84;1706562;83;21093;-69
2021/11/26 08:29:20;;;;;;;9.90;7.00;;;;;;;8.31;57.25;100100.61;1706075;84;21171;-70
2021/11/26 08:31:47;;;;;;;9.08;6.90;;;;;;;8.33;57.09;100109.16;1706123;84;21495;-70
2021/11/26 08:34:15;;;;;;;8.90;6.95;;;;;;;8.33;56.77;100097.71;1705902;84;21024;-69
2021/11/26 08:36:41;;;;;;;10.05;6.70;;;;;;;8.25;56.43;100100.81;1706439;83;20993;-70
2021/11/26 08:39:10;;;;;;;7.87;5.92;;;;;;;8.21;56.61;100096.00;1707602;82;20925;-70
2021/11/26 08:41:38;;;;;;;8.33;5.92;;;;;;;8.30;56.79;100104.87;1712205;82;21535;-70
2021/11/26 08:44:06;;;;;;;9.15;6.97;;;;;;;8.40;56.76;100090.34;1706494;83;21107;-69
2021/11/26 08:46:33;;;;;;;10.38;7.45;;;;;;;8.45;56.55;100089.04;1706449;83;21047;-69
2021/11/26 08:49:00;;;;;;;8.68;6.72;;;;;;;8.55;56.10;100084.33;1705998;84;21040;-71
2021/11/26 08:51:30;;;;;;;8.43;6.75;;;;;;;8.56;56.02;100072.64;1706376;82;21509;-71
2021/11/26 08:53:56;;;;;;;9.33;6.85;;;;;;;8.56;55.86;100071.31;1706125;84;20977;-70
2021/11/26 08:56:25;;;;;;;8.65;6.37;;;;;;;8.53;55.94;100069.16;1706171;84;21060;-70
2021/11/26 08:58:52;;;;;;;8.63;6.33;;;;;;;8.61;55.97;100070.80;1715065;82;20976;-69
2021/11/26 09:01:19;;;;;;;8.73;6.20;;;;;;;8.69;55.79;100065.02;1718735;83;20963;-70
2021/11/26 09:03:49;;;;;;;11.15;7.50;;;;;;;8.74;55.58;100051.45;1724451;82;21093;-70
2021/11/26 09:06:18;;;;;;;10.25;6.85;;;;;;;8.70;55.62;100059.16;1735292;82;21164;-70
2021/11/26 09:08:44;;;;;;;8.35;6.33;;;;;;;8.83;55.66;100052.58;1734819;82;21546;-69
2021/11/26 09:11:14;;;;;;;9.05;6.72;;;;;;;8.98;55.55;100049.98;1735391;82;21069;-71
2021/11/26 09:13:41;;;;;;;8.28;5.97;;;;;;;9.13;55.15;100046.61;1734899;82;21192;-69
2021/11/26 09:16:08;;;;;;;9.18;6.80;;;;;;;9.13;54.79;100038.08;1735350;82;21861;-71
2021/11/26 09:18:35;;;;;;;8.73;6.35;;;;;;;9.18;54.71;100033.32;1735425;82;21498;-70
2021/11/26 09:21:03;;;;;;;7.15;6.08;;;;;;;9.29;54.76;100030.16;1734044;82;21075;-70
2021/11/26 09:23:29;;;;;;;8.15;6.17;;;;;;;9.35;54.40;100021.13;1709291;82;21630;-69
2021/11/26 09:25:56;;;;;;;7.60;5.72;;;;;;;9.44;54.40;100014.20;1722981;82;21013;-70
2021/11/26 09:28:23;;;;;;;9.73;6.20;;;;;;;9.53;54.27;100000.63;1735337;82;21753;-71
2021/11/26 09:30:50;;;;;;;9.45;6.85;;;;;;;9.65;54.08;100003.06;1735395;82;21106;-70
2021/11/26 09:33:20;;;;;;;8.73;6.20;;;;;;;9.71;53.54;100002.55;1734531;82;20950;-70
2021/11/26 09:35:47;;;;;;;8.58;6.42;;;;;;;9.73;53.15;99991.86;1735312;82;20989;-70
2021/11/26 09:38:13;;;;;;;9.55;6.30;;;;;;;9.74;53.01;100000.16;1735242;82;21095;-69
2021/11/26 09:40:42;;;;;;;8.20;6.40;;;;;;;9.75;53.06;99991.61;1735029;82;21559;-71
2021/11/26 09:43:09;;;;;;;8.55;6.35;;;;;;;9.86;52.67;99983.34;1734534;82;21530;-70
2021/11/26 09:45:38;;;;;;;8.70;6.60;;;;;;;9.84;52.68;99980.70;1735189;82;21069;-71
2021/11/26 09:48:05;;;;;;;9.18;6.30;;;;;;;9.85;52.45;99985.75;1732690;82;22105;-70
2021/11/26 09:50:33;;;;;;;8.45;6.03;;;;;;;9.89;52.39;99983.89;1714477;82;21055;-70
2021/11/26 09:53:15;;;;;;;7.87;6.08;;;;;;;9.96;52.39;99977.75;1708124;82;21147;-70
2021/11/26 09:55:50;;;;;;;8.50;6.75;;;;;;;10.02;52.16;99965.47;1722501;82;21582;-69
2021/11/26 09:58:17;;;;;;;6.65;5.35;;;;;;;10.09;52.08;99960.66;1708566;82;21024;-69
2021/11/26 10:00:46;;;;;;;8.55;6.50;;;;;;;10.19;52.03;99945.72;1734638;82;21557;-69
2021/11/26 10:03:12;;;;;;;8.45;6.42;;;;;;;10.25;51.79;99959.32;1708492;82;21539;-68
2021/11/26 10:05:41;;;;;;;10.05;6.28;;;;;;;10.30;51.59;99948.68;1725307;82;21114;-69
2021/11/26 10:08:10;;;;;;;7.87;6.17;;;;;;;10.32;51.37;99942.52;1705607;84;20992;-69
2021/11/26 10:10:41;;;;;;;9.05;6.20;;;;;;;10.36;51.38;99941.45;1706059;84;21427;-70
2021/11/26 10:13:11;;;;;;;7.20;6.15;;;;;;;10.42;51.16;99935.82;1706334;83;21020;-70
2021/11/26 10:15:45;;;;;;;8.60;6.20;;;;;;;10.47;51.06;99937.70;1707138;82;21048;-69
2021/11/26 10:18:26;;;;;;;10.65;6.50;;;;;;;10.51;51.03;99916.84;1707382;82;21788;-70
2021/11/26 10:21:01;;;;;;;8.63;6.08;;;;;;;10.56;51.02;99912.84;1729499;82;21044;-69
2021/11/26 10:23:33;;;;;;;7.75;5.97;;;;;;;10.63;50.88;99909.87;1734509;82;21056;-68
2021/11/26 10:26:21;;;;;;;7.35;5.72;;;;;;;10.64;50.77;99905.33;1734672;82;20989;-69
2021/11/26 10:28:53;;;;;;;8.60;6.30;;;;;;;10.65;50.60;99900.24;1716385;82;20937;-69
2021/11/26 10:31:31;;;;;;;9.08;6.83;;;;;;;10.68;50.59;99895.69;1713412;82;21444;-69
2021/11/26 10:34:01;;;;;;;7.90;5.97;;;;;;;10.68;50.64;99885.80;1735061;82;21004;-69
2021/11/26 10:36:29;;;;;;;8.48;6.33;;;;;;;10.72;50.65;99882.05;1706050;83;21460;-69
2021/11/26 10:38:56;;;;;;;8.55;6.00;;;;;;;10.75;50.54;99879.63;1703262;82;21068;-69
2021/11/26 10:41:35;;;;;;;7.78;6.30;;;;;;;10.82;50.45;99876.66;1724533;82;21067;-69
2021/11/26 10:44:08;;;;;;;8.30;6.08;;;;;;;10.90;50.16;99877.43;1714180;81;21373;-70
2021/11/26 11:00:05;;;;;;;8.93;6.00;;;;;;;10.98;49.81;99878.17;1706098;84;20987;-68
2021/11/26 11:02:41;;;;;;;8.33;5.33;;;;;;;10.91;49.71;99876.34;1706081;84;20956;-68
2021/11/26 11:05:31;;;;;;;7.65;5.60;;;;;;;10.86;49.99;99875.05;1706154;82;21096;-70
2021/11/26 11:08:01;;;;;;;7.70;5.40;;;;;;;10.86;50.06;99868.89;1705829;82;21043;-69
2021/11/26 11:10:35;;;;;;;7.22;5.47;;;;;;;10.80;50.04;99860.91;1706160;82;21105;-71
2021/11/26 11:13:21;;;;;;;7.50;5.75;;;;;;;10.75;50.24;99849.45;1705866;82;21035;-69
2021/11/26 11:15:50;;;;;;;7.72;5.22;;;;;;;10.71;50.41;99849.20;1706047;82;21451;-69
2021/11/26 11:18:16;;;;;;;6.87;5.10;;;;;;;10.72;50.56;99852.66;1706081;82;21032;-69
2021/11/26 11:20:43;;;;;;;8.08;5.45;;;;;;;10.70;50.71;99848.16;1713498;82;21019;-69
2021/11/26 11:23:10;;;;;;;6.83;5.20;;;;;;;10.69;50.75;99854.00;1707846;82;21168;-69
2021/11/26 11:25:39;;;;;;;7.53;5.50;;;;;;;10.69;50.80;99844.66;1711855;82;20957;-69
2021/11/26 11:28:08;;;;;;;7.62;6.15;;;;;;;10.72;50.90;99852.66;1684736;84;21023;-70
2021/11/26 11:30:36;;;;;;;8.35;5.70;;;;;;;10.74;50.95;99850.53;1690042;84;21637;-70
2021/11/26 11:33:03;;;;;;;7.53;5.05;;;;;;;10.76;50.94;99856.41;1691242;84;21070;-70
2021/11/26 11:35:31;;;;;;;7.75;5.28;;;;;;;10.77;50.87;99861.45;1683094;84;21105;-69
2021/11/26 11:38:00;;;;;;;6.47;5.08;;;;;;;10.77;50.73;99870.81;1667326;86;21130;-70
2021/11/26 11:40:33;;;;;;;6.90;5.10;;;;;;;10.75;50.75;99872.95;1667447;86;21103;-69
2021/11/26 11:43:15;;;;;;;8.65;5.10;;;;;;;10.78;50.89;99863.05;1667450;86;21586;-69